createdAt,value
2024-03-03T00:00:49.903Z,9.66
2024-03-03T00:03:17.957Z,9.65
2024-03-03T00:05:46.102Z,9.64
2024-03-03T00:08:14.204Z,9.62
2024-03-03T00:10:42.143Z,9.61
2024-03-03T00:13:12.755Z,9.59
2024-03-03T00:15:42.183Z,9.53
2024-03-03T00:18:13.463Z,9.48
2024-03-03T00:20:41.476Z,9.44
2024-03-03T00:23:09.547Z,9.36
2024-03-03T00:25:40.057Z,9.32
2024-03-03T00:28:08.198Z,9.25
2024-03-03T00:30:36.144Z,9.20
2024-03-03T00:33:06.169Z,9.16
2024-03-03T00:35:34.152Z,9.09
2024-03-03T00:38:02.222Z,9.05
2024-03-03T00:40:33.806Z,8.99
2024-03-03T00:43:01.993Z,8.87
2024-03-03T00:45:30.045Z,8.82
2024-03-03T00:47:58.666Z,8.82
2024-03-03T00:50:28.583Z,8.77
2024-03-03T00:52:56.776Z,8.75
2024-03-03T00:55:25.123Z,8.73
2024-03-03T00:57:54.123Z,8.69
2024-03-03T01:00:22.828Z,8.64
2024-03-03T01:02:51.131Z,8.61
2024-03-03T01:05:19.035Z,8.59
2024-03-03T01:07:50.667Z,8.55
2024-03-03T01:10:19.757Z,8.51
2024-03-03T01:12:47.738Z,8.46
2024-03-03T01:15:18.562Z,8.43
2024-03-03T01:17:47.047Z,8.42
2024-03-03T01:20:15.447Z,8.37
2024-03-03T01:22:43.461Z,8.36
2024-03-03T01:25:13.089Z,8.33
2024-03-03T01:27:46.181Z,8.30
2024-03-03T01:30:14.218Z,8.28
2024-03-03T01:32:42.238Z,8.27
2024-03-03T01:35:10.599Z,8.27
2024-03-03T01:37:38.478Z,8.27
2024-03-03T01:40:11.589Z,8.27
2024-03-03T01:42:41.314Z,8.29
2024-03-03T01:45:19.775Z,8.31
2024-03-03T01:47:48.254Z,8.30
2024-03-03T01:50:16.197Z,8.31
2024-03-03T01:52:45.136Z,8.32
2024-03-03T01:55:15.969Z,8.31
2024-03-03T01:57:47.607Z,8.30
2024-03-03T02:00:16.246Z,8.27
2024-03-03T02:02:45.102Z,8.29
2024-03-03T02:05:14.655Z,8.27
2024-03-03T02:07:43.232Z,8.26
2024-03-03T02:10:12.198Z,8.28
2024-03-03T02:12:41.861Z,8.27
2024-03-03T02:15:12.157Z,8.30
2024-03-03T02:17:40.348Z,8.32
2024-03-03T02:20:11.922Z,8.34
2024-03-03T02:22:41.368Z,8.35
2024-03-03T02:25:10.996Z,8.35
2024-03-03T02:27:39.423Z,8.36
2024-03-03T02:30:09.293Z,8.36
2024-03-03T02:32:37.260Z,8.34
2024-03-03T02:35:30.163Z,8.32
2024-03-03T02:37:59.829Z,8.32
2024-03-03T02:40:32.440Z,8.31
2024-03-03T02:43:06.733Z,8.30
2024-03-03T02:45:34.716Z,8.27
2024-03-03T02:48:02.848Z,8.25
2024-03-03T02:50:30.926Z,8.24
2024-03-03T02:53:00.304Z,8.25
2024-03-03T02:55:28.491Z,8.26
2024-03-03T02:57:56.529Z,8.26
2024-03-03T03:00:24.996Z,8.26
2024-03-03T03:02:54.885Z,8.25
2024-03-03T03:05:22.945Z,8.24
2024-03-03T03:07:56.135Z,8.21
2024-03-03T03:10:26.241Z,8.19
2024-03-03T03:12:54.912Z,8.16
2024-03-03T03:15:22.800Z,8.15
2024-03-03T03:17:52.484Z,8.13
2024-03-03T03:20:20.505Z,8.09
2024-03-03T03:22:49.435Z,8.05
2024-03-03T03:25:17.442Z,7.97
2024-03-03T03:27:46.859Z,7.91
2024-03-03T03:30:15.128Z,7.89
2024-03-03T03:32:43.061Z,7.86
2024-03-03T03:35:11.082Z,7.84
2024-03-03T03:37:39.195Z,7.80
2024-03-03T03:40:11.614Z,7.79
2024-03-03T03:42:40.687Z,7.75
2024-03-03T03:45:10.468Z,7.69
2024-03-03T03:47:38.466Z,7.62
2024-03-03T03:50:08.520Z,7.57
2024-03-03T03:52:36.422Z,7.52
2024-03-03T03:55:04.857Z,7.48
2024-03-03T03:57:34.824Z,7.41
2024-03-03T04:00:03.016Z,7.30
2024-03-03T04:02:42.049Z,7.27
2024-03-03T04:05:10.676Z,7.22
2024-03-03T04:07:38.818Z,7.20
2024-03-03T04:10:08.607Z,7.16
2024-03-03T04:12:36.590Z,7.12
2024-03-03T04:15:05.380Z,7.07
2024-03-03T04:17:34.116Z,7.07
2024-03-03T04:20:06.467Z,7.03
2024-03-03T04:22:34.795Z,7.04
2024-03-03T04:25:05.902Z,7.02
2024-03-03T04:27:33.879Z,7.02
2024-03-03T04:30:01.985Z,7.02
2024-03-03T04:32:32.158Z,6.98
2024-03-03T04:35:02.230Z,6.96
2024-03-03T04:37:32.421Z,6.89
2024-03-03T04:40:00.550Z,6.87
2024-03-03T04:42:31.819Z,6.87
2024-03-03T04:45:00.389Z,6.82
2024-03-03T04:47:28.467Z,6.81
2024-03-03T04:49:56.456Z,6.81
2024-03-03T04:52:24.717Z,6.84
2024-03-03T04:54:54.012Z,6.85
2024-03-03T04:57:22.085Z,6.85
2024-03-03T04:59:52.132Z,6.88
2024-03-03T05:02:24.177Z,6.88
2024-03-03T05:04:53.611Z,6.90
2024-03-03T05:07:22.063Z,6.89
2024-03-03T05:09:50.353Z,6.91
2024-03-03T05:12:20.506Z,6.92
2024-03-03T05:14:48.486Z,6.91
2024-03-03T05:17:16.569Z,6.89
2024-03-03T05:19:44.848Z,6.90
2024-03-03T05:22:13.279Z,6.89
2024-03-03T05:24:41.475Z,6.87
2024-03-03T05:27:14.820Z,6.89
2024-03-03T05:29:44.290Z,6.92
2024-03-03T05:32:12.305Z,6.92
2024-03-03T05:34:42.580Z,6.92
2024-03-03T05:37:12.481Z,6.93
2024-03-03T05:39:41.527Z,6.93
2024-03-03T05:42:10.323Z,6.94
2024-03-03T05:44:38.387Z,6.92
2024-03-03T05:47:08.138Z,6.94
2024-03-03T05:49:37.184Z,6.95
2024-03-03T05:52:09.016Z,6.94
2024-03-03T05:54:39.688Z,6.93
2024-03-03T05:57:07.982Z,6.89
2024-03-03T05:59:35.963Z,6.90
2024-03-03T06:02:04.038Z,6.93
2024-03-03T06:04:36.746Z,6.92
2024-03-03T06:07:06.174Z,6.95
2024-03-03T06:09:34.524Z,6.95
2024-03-03T06:12:03.878Z,6.92
2024-03-03T06:14:31.949Z,6.91
2024-03-03T06:16:59.924Z,6.92
2024-03-03T06:19:28.086Z,6.93
2024-03-03T06:21:57.611Z,6.93
2024-03-03T06:24:28.334Z,6.93
2024-03-03T06:26:56.188Z,6.94
2024-03-03T06:29:24.138Z,6.97
2024-03-03T06:31:52.291Z,6.99
2024-03-03T06:34:20.487Z,7.03
2024-03-03T06:36:51.722Z,7.03
2024-03-03T06:39:23.321Z,7.06
2024-03-03T06:41:51.690Z,7.12
2024-03-03T06:44:19.654Z,7.13
2024-03-03T06:46:47.691Z,7.16
2024-03-03T06:49:15.788Z,7.19
2024-03-03T06:51:44.416Z,7.21
2024-03-03T06:54:13.142Z,7.24
2024-03-03T06:56:42.369Z,7.24
2024-03-03T06:59:11.500Z,7.29
2024-03-03T07:01:39.763Z,7.33
2024-03-03T07:04:21.809Z,7.36
2024-03-03T07:06:50.086Z,7.44
2024-03-03T07:09:19.291Z,7.50
2024-03-03T07:11:48.605Z,7.54
2024-03-03T07:14:16.465Z,7.59
2024-03-03T07:16:44.443Z,7.63
2024-03-03T07:19:12.466Z,7.70
2024-03-03T07:21:40.892Z,7.73
2024-03-03T07:24:09.461Z,7.80
2024-03-03T07:26:38.268Z,7.83
2024-03-03T07:29:09.287Z,7.87
2024-03-03T07:31:39.785Z,7.90
2024-03-03T07:34:07.897Z,7.96
2024-03-03T07:36:35.827Z,7.99
2024-03-03T07:39:03.801Z,8.03
2024-03-03T07:41:31.747Z,8.11
2024-03-03T07:44:02.039Z,8.18
2024-03-03T07:46:31.453Z,8.26
2024-03-03T07:48:59.511Z,8.35
2024-03-03T07:51:27.405Z,8.43
2024-03-03T07:53:55.707Z,8.52
2024-03-03T07:56:23.597Z,8.59
2024-03-03T07:58:51.715Z,8.67
2024-03-03T08:01:19.677Z,8.76
2024-03-03T08:03:49.167Z,8.83
2024-03-03T08:06:17.797Z,8.92
2024-03-03T08:08:45.907Z,9.04
2024-03-03T08:11:13.395Z,9.11
2024-03-03T08:13:41.418Z,9.20
2024-03-03T08:16:09.717Z,9.31
2024-03-03T08:18:37.943Z,9.38
2024-03-03T08:21:07.597Z,9.46
2024-03-03T08:23:38.488Z,9.55
2024-03-03T08:26:06.623Z,9.64
2024-03-03T08:28:37.207Z,9.69
2024-03-03T08:31:05.850Z,9.79
2024-03-03T08:33:34.368Z,9.85
2024-03-03T08:36:02.284Z,9.94
2024-03-03T08:38:32.555Z,10.05
2024-03-03T08:41:00.788Z,10.16
2024-03-03T08:43:31.654Z,10.25
2024-03-03T08:45:59.780Z,10.31
2024-03-03T08:48:27.699Z,10.39
2024-03-03T08:50:56.625Z,10.50
2024-03-03T08:53:24.930Z,10.59
2024-03-03T08:55:54.245Z,10.70
2024-03-03T08:58:24.876Z,10.79
2024-03-03T09:00:53.303Z,10.86
2024-03-03T09:03:21.295Z,10.90
2024-03-03T09:05:49.622Z,10.94
2024-03-03T09:08:17.711Z,11.03
2024-03-03T09:10:48.468Z,11.13
2024-03-03T09:13:17.927Z,11.21
2024-03-03T09:15:46.205Z,11.29
2024-03-03T09:18:14.224Z,11.38
2024-03-03T09:20:42.268Z,11.47
2024-03-03T09:23:12.531Z,11.60
2024-03-03T09:25:42.645Z,11.71
2024-03-03T09:28:11.258Z,11.83
2024-03-03T09:30:40.560Z,11.98
2024-03-03T09:33:11.624Z,12.08
2024-03-03T09:35:42.077Z,12.22
2024-03-03T09:38:10.878Z,12.34
2024-03-03T09:40:39.084Z,12.44
2024-03-03T09:43:08.387Z,12.54
2024-03-03T09:45:36.912Z,12.62
2024-03-03T09:48:09.375Z,12.71
2024-03-03T09:50:38.413Z,12.83
2024-03-03T09:53:09.467Z,12.88
2024-03-03T09:55:41.105Z,12.97
2024-03-03T09:58:10.650Z,13.05
2024-03-03T10:00:42.254Z,13.13
2024-03-03T10:03:11.798Z,13.19
2024-03-03T10:05:40.681Z,13.26
2024-03-03T10:08:12.983Z,13.30
2024-03-03T10:10:47.726Z,13.35
2024-03-03T10:13:19.268Z,13.44
2024-03-03T10:15:48.930Z,13.55
2024-03-03T10:18:21.947Z,13.69
2024-03-03T10:20:58.588Z,13.84
2024-03-03T10:23:29.552Z,13.94
2024-03-03T10:26:00.000Z,14.04
2024-03-03T10:28:28.505Z,14.17
2024-03-03T10:31:12.155Z,14.24
2024-03-03T10:33:54.029Z,14.32
2024-03-03T10:36:24.295Z,14.35
2024-03-03T10:38:53.609Z,14.46
2024-03-03T10:41:23.157Z,14.53
2024-03-03T10:43:51.573Z,14.61
2024-03-03T10:46:20.165Z,14.70
2024-03-03T10:48:54.629Z,14.78
2024-03-03T10:51:23.746Z,14.87
2024-03-03T10:53:53.046Z,14.89
2024-03-03T10:56:21.666Z,15.01
2024-03-03T10:58:51.149Z,15.10
2024-03-03T11:01:20.495Z,15.15
2024-03-03T11:03:54.215Z,15.14
2024-03-03T11:06:23.912Z,15.16
2024-03-03T11:08:53.549Z,15.22
2024-03-03T11:11:28.726Z,15.29
2024-03-03T11:13:59.507Z,15.42
2024-03-03T11:16:30.180Z,15.54
2024-03-03T11:19:05.160Z,15.68
2024-03-03T11:21:38.122Z,15.79
2024-03-03T11:24:07.131Z,15.83
2024-03-03T11:26:43.524Z,15.97
2024-03-03T11:29:13.551Z,16.02
2024-03-03T11:31:42.949Z,16.04
2024-03-03T11:34:14.944Z,16.10
2024-03-03T11:36:43.567Z,16.16
2024-03-03T11:39:15.320Z,16.27
2024-03-03T11:41:46.788Z,16.36
2024-03-03T11:44:49.889Z,16.42
2024-03-03T11:47:17.839Z,16.50
2024-03-03T11:49:47.270Z,16.64
2024-03-03T11:52:40.692Z,16.71
2024-03-03T11:55:10.356Z,16.79
2024-03-03T11:57:43.029Z,16.90
2024-03-03T12:00:15.817Z,16.98
2024-03-03T12:02:44.095Z,17.10
2024-03-03T12:05:14.947Z,17.18
2024-03-03T12:07:44.714Z,17.27
2024-03-03T12:10:17.235Z,17.36
2024-03-03T12:12:52.523Z,17.45
2024-03-03T12:15:24.260Z,17.58
2024-03-03T12:17:56.793Z,17.71
2024-03-03T12:20:27.338Z,17.79
2024-03-03T12:22:57.210Z,17.84
2024-03-03T12:25:27.391Z,17.93
2024-03-03T12:27:57.090Z,18.06
2024-03-03T12:30:36.167Z,18.16
2024-03-03T12:33:07.802Z,18.30
2024-03-03T12:35:38.804Z,18.37
2024-03-03T12:38:08.198Z,18.46
2024-03-03T12:40:36.339Z,18.69
2024-03-03T12:43:07.245Z,18.85
2024-03-03T12:45:36.220Z,18.98
2024-03-03T12:48:08.339Z,19.12
2024-03-03T12:50:38.904Z,19.27
2024-03-03T12:53:15.450Z,19.39
2024-03-03T12:55:47.771Z,19.53
2024-03-03T12:58:16.927Z,19.61
2024-03-03T13:00:47.560Z,19.79
2024-03-03T13:03:15.850Z,19.95
2024-03-03T13:05:47.905Z,20.09
2024-03-03T13:08:17.088Z,20.17
2024-03-03T13:10:46.931Z,20.22
2024-03-03T13:13:16.080Z,20.27
2024-03-03T13:15:50.644Z,20.34
2024-03-03T13:18:25.484Z,20.40
2024-03-03T13:21:12.090Z,20.52
2024-03-03T13:23:40.272Z,20.69
2024-03-03T13:26:10.140Z,20.83
2024-03-03T13:28:38.461Z,20.99
2024-03-03T13:31:07.782Z,21.05
2024-03-03T13:33:38.472Z,21.11
2024-03-03T13:36:09.786Z,21.20
2024-03-03T13:38:39.575Z,21.66
2024-03-03T13:41:09.926Z,21.29
2024-03-03T13:43:37.894Z,21.37
2024-03-03T13:46:06.377Z,21.56
2024-03-03T13:48:35.324Z,21.69
2024-03-03T13:51:05.511Z,21.77
2024-03-03T13:53:35.132Z,21.91
2024-03-03T13:56:04.656Z,22.00
2024-03-03T13:58:32.970Z,22.16
2024-03-03T14:01:01.305Z,22.29
2024-03-03T14:03:33.557Z,22.22
2024-03-03T14:06:01.992Z,22.26
2024-03-03T14:08:29.988Z,22.21
2024-03-03T14:10:58.094Z,22.39
2024-03-03T14:13:27.692Z,22.53
2024-03-03T14:15:55.919Z,22.58
2024-03-03T14:18:23.984Z,22.75
2024-03-03T14:20:54.282Z,22.85
2024-03-03T14:23:22.519Z,22.92
2024-03-03T14:25:50.761Z,23.10
2024-03-03T14:28:21.331Z,23.23
2024-03-03T14:30:50.735Z,23.25
2024-03-03T14:33:18.816Z,23.21
2024-03-03T14:35:46.752Z,23.18
2024-03-03T14:38:14.645Z,23.21
2024-03-03T14:40:42.772Z,23.10
2024-03-03T14:43:11.054Z,23.12
2024-03-03T14:45:39.479Z,23.21
2024-03-03T14:48:09.454Z,23.17
2024-03-03T14:50:37.535Z,23.19
2024-03-03T14:53:06.618Z,23.17
2024-03-03T14:55:35.047Z,23.23
2024-03-03T14:58:07.149Z,23.28
2024-03-03T15:00:37.177Z,23.26
2024-03-03T15:03:05.842Z,23.26
2024-03-03T15:05:35.209Z,23.25
2024-03-03T15:08:03.277Z,23.11
2024-03-03T15:10:34.670Z,22.96
2024-03-03T15:13:06.571Z,22.90
2024-03-03T15:15:34.917Z,22.72
2024-03-03T15:18:03.030Z,22.72
2024-03-03T15:20:31.926Z,22.67
2024-03-03T15:23:04.165Z,22.67
2024-03-03T15:25:37.865Z,22.54
2024-03-03T15:28:10.626Z,22.40
2024-03-03T15:30:39.996Z,22.37
2024-03-03T15:33:09.587Z,22.37
2024-03-03T15:35:39.816Z,22.28
2024-03-03T15:38:09.634Z,22.21
2024-03-03T15:40:40.238Z,21.99
2024-03-03T15:43:08.363Z,22.03
2024-03-03T15:45:38.980Z,21.89
2024-03-03T15:48:08.480Z,21.80
2024-03-03T15:50:38.097Z,21.66
2024-03-03T15:53:06.156Z,21.57
2024-03-03T15:55:37.845Z,21.53
2024-03-03T15:58:08.284Z,21.44
2024-03-03T16:00:36.280Z,21.29
2024-03-03T16:03:06.383Z,21.13
2024-03-03T16:05:38.810Z,20.97
2024-03-03T16:08:12.324Z,20.80
2024-03-03T16:10:43.315Z,20.60
2024-03-03T16:13:11.310Z,20.22
2024-03-03T16:15:41.452Z,19.97
2024-03-03T16:18:13.134Z,19.77
2024-03-03T16:20:42.374Z,19.54
2024-03-03T16:23:10.442Z,19.38
2024-03-03T16:25:38.640Z,19.19
2024-03-03T16:28:09.205Z,19.03
2024-03-03T16:30:41.320Z,18.88
2024-03-03T16:33:09.778Z,18.73
2024-03-03T16:35:37.981Z,18.59
2024-03-03T16:38:06.472Z,18.48
2024-03-03T16:40:39.008Z,18.30
2024-03-03T16:43:08.621Z,18.19
2024-03-03T16:45:40.790Z,18.10
2024-03-03T16:48:10.972Z,18.00
2024-03-03T16:50:39.023Z,17.90
2024-03-03T16:53:06.905Z,17.84
2024-03-03T16:55:35.099Z,17.75
2024-03-03T16:58:03.589Z,17.66
2024-03-03T17:00:32.954Z,17.54
2024-03-03T17:03:01.222Z,17.44
2024-03-03T17:05:29.807Z,17.34
2024-03-03T17:07:57.779Z,17.21
2024-03-03T17:10:26.593Z,17.10
2024-03-03T17:12:56.201Z,16.96
2024-03-03T17:15:25.342Z,16.83
2024-03-03T17:17:55.138Z,16.71
2024-03-03T17:20:23.545Z,16.57
2024-03-03T17:22:51.511Z,16.45
2024-03-03T17:25:20.151Z,16.32
2024-03-03T17:27:51.089Z,16.19
2024-03-03T17:30:20.837Z,16.10
2024-03-03T17:32:50.776Z,16.00
2024-03-03T17:35:23.203Z,15.89
2024-03-03T17:37:51.737Z,15.79
2024-03-03T17:40:19.823Z,15.70
2024-03-03T17:42:47.889Z,15.60
2024-03-03T17:45:16.115Z,15.52
2024-03-03T17:47:44.027Z,15.40
2024-03-03T17:50:12.397Z,15.31
2024-03-03T17:52:42.633Z,15.25
2024-03-03T17:55:10.721Z,15.16
2024-03-03T17:57:42.241Z,15.08
2024-03-03T18:00:13.512Z,15.00
2024-03-03T18:02:42.020Z,14.94
2024-03-03T18:05:10.723Z,14.88
2024-03-03T18:07:38.736Z,14.81
2024-03-03T18:10:10.788Z,14.75
2024-03-03T18:12:38.770Z,14.70
2024-03-03T18:15:07.786Z,14.63
2024-03-03T18:17:37.450Z,14.57
2024-03-03T18:20:07.126Z,14.51
2024-03-03T18:22:36.888Z,14.45
2024-03-03T18:25:05.678Z,14.37
2024-03-03T18:27:35.041Z,14.33
2024-03-03T18:30:03.121Z,14.24
2024-03-03T18:32:34.754Z,14.19
2024-03-03T18:35:07.876Z,14.10
2024-03-03T18:37:39.156Z,14.03
2024-03-03T18:40:09.692Z,13.98
2024-03-03T18:42:42.596Z,13.91
2024-03-03T18:45:11.027Z,13.85
2024-03-03T18:47:39.503Z,13.79
2024-03-03T18:50:09.505Z,13.74
2024-03-03T18:52:40.327Z,13.65
2024-03-03T18:55:11.045Z,13.60
2024-03-03T18:57:39.087Z,13.57
2024-03-03T19:00:11.977Z,13.54
2024-03-03T19:02:41.371Z,13.51
2024-03-03T19:05:10.860Z,13.43
2024-03-03T19:07:40.643Z,13.34
2024-03-03T19:10:09.978Z,13.27
2024-03-03T19:12:38.293Z,13.21
2024-03-03T19:15:08.842Z,13.14
2024-03-03T19:17:37.332Z,13.10
2024-03-03T19:20:05.915Z,13.07
2024-03-03T19:22:34.079Z,13.00
2024-03-03T19:25:02.620Z,12.99
2024-03-03T19:27:30.837Z,12.96
2024-03-03T19:30:00.454Z,12.88
2024-03-03T19:32:29.981Z,12.83
2024-03-03T19:35:00.902Z,12.76
2024-03-03T19:37:29.016Z,12.73
2024-03-03T19:39:58.246Z,12.68
2024-03-03T19:42:28.836Z,12.62
2024-03-03T19:44:59.190Z,12.56
2024-03-03T19:47:27.302Z,12.49
2024-03-03T19:49:59.128Z,12.44
2024-03-03T19:52:27.955Z,12.39
2024-03-03T19:54:56.135Z,12.36
2024-03-03T19:57:29.470Z,12.31
2024-03-03T19:59:59.400Z,12.26
2024-03-03T20:02:27.519Z,12.24
2024-03-03T20:04:55.551Z,12.21
2024-03-03T20:07:25.004Z,12.19
2024-03-03T20:09:56.303Z,12.15
2024-03-03T20:12:24.459Z,12.09
2024-03-03T20:14:52.417Z,12.04
2024-03-03T20:17:20.676Z,12.01
2024-03-03T20:19:51.369Z,12.01
2024-03-03T20:22:20.510Z,11.96
2024-03-03T20:24:49.988Z,11.95
2024-03-03T20:27:20.686Z,11.92
2024-03-03T20:29:48.776Z,11.91
2024-03-03T20:32:17.078Z,11.87
2024-03-03T20:34:45.207Z,11.83
2024-03-03T20:37:13.798Z,11.81
2024-03-03T20:39:44.057Z,11.82
2024-03-03T20:42:14.873Z,11.81
2024-03-03T20:44:44.067Z,11.79
2024-03-03T20:47:12.770Z,11.75
2024-03-03T20:49:41.103Z,11.72
2024-03-03T20:52:10.365Z,11.68
2024-03-03T20:54:38.612Z,11.64
2024-03-03T20:57:09.866Z,11.63
2024-03-03T20:59:39.418Z,11.60
2024-03-03T21:02:08.141Z,11.57
2024-03-03T21:04:38.049Z,11.56
2024-03-03T21:07:12.220Z,11.52
2024-03-03T21:09:43.224Z,11.50
2024-03-03T21:12:14.100Z,11.47
2024-03-03T21:14:43.595Z,11.44
2024-03-03T21:17:11.815Z,11.42
2024-03-03T21:19:40.070Z,11.39
2024-03-03T21:22:10.898Z,11.37
2024-03-03T21:24:42.095Z,11.35
2024-03-03T21:27:10.502Z,11.31
2024-03-03T21:29:38.747Z,11.27
2024-03-03T21:32:11.704Z,11.24
2024-03-03T21:34:39.936Z,11.26
2024-03-03T21:37:08.539Z,11.24
2024-03-03T21:39:36.813Z,11.18
2024-03-03T21:42:04.958Z,11.15
2024-03-03T21:44:33.396Z,11.12
2024-03-03T21:47:01.507Z,11.11
2024-03-03T21:49:31.260Z,11.10
2024-03-03T21:51:59.307Z,11.09
2024-03-03T21:54:27.235Z,11.07
2024-03-03T21:56:56.414Z,11.06
2024-03-03T21:59:27.070Z,11.03
2024-03-03T22:02:03.233Z,11.01
2024-03-03T22:04:39.903Z,10.99
2024-03-03T22:07:08.175Z,10.94
2024-03-03T22:09:36.092Z,10.92
2024-03-03T22:12:04.131Z,10.90
2024-03-03T22:14:32.040Z,10.84
2024-03-03T22:17:00.179Z,10.78
2024-03-03T22:19:28.380Z,10.78
2024-03-03T22:21:57.739Z,10.76
2024-03-03T22:24:25.934Z,10.69
2024-03-03T22:26:55.404Z,10.66
2024-03-03T22:29:23.719Z,10.61
2024-03-03T22:31:52.154Z,10.56
2024-03-03T22:34:20.426Z,10.51
2024-03-03T22:36:50.799Z,10.48
2024-03-03T22:39:20.631Z,10.47
2024-03-03T22:41:48.543Z,10.46
2024-03-03T22:44:16.905Z,10.42
2024-03-03T22:46:47.168Z,10.37
2024-03-03T22:49:15.249Z,10.36
2024-03-03T22:51:46.296Z,10.31
2024-03-03T22:54:14.996Z,10.27
2024-03-03T22:56:44.372Z,10.22
2024-03-03T22:59:12.563Z,10.21
2024-03-03T23:01:43.358Z,10.19
2024-03-03T23:04:11.822Z,10.18
2024-03-03T23:06:39.814Z,10.21
2024-03-03T23:09:13.522Z,10.21
2024-03-03T23:11:41.790Z,10.20
2024-03-03T23:14:11.418Z,10.22
2024-03-03T23:16:39.902Z,10.17
2024-03-03T23:19:11.498Z,10.13
2024-03-03T23:21:39.909Z,10.11
2024-03-03T23:24:08.382Z,10.07
2024-03-03T23:26:37.294Z,10.04
2024-03-03T23:29:05.442Z,10.04
2024-03-03T23:31:35.098Z,10.02
2024-03-03T23:34:03.304Z,9.99
2024-03-03T23:36:31.313Z,9.95
2024-03-03T23:38:59.434Z,9.91
2024-03-03T23:41:28.447Z,9.87
2024-03-03T23:43:56.382Z,9.82
2024-03-03T23:46:24.971Z,9.83
2024-03-03T23:48:54.489Z,9.82
2024-03-03T23:51:22.670Z,9.78
2024-03-03T23:53:50.880Z,9.73
2024-03-03T23:56:18.831Z,9.69
2024-03-03T23:58:49.113Z,9.63
